sensor_id;sensor_type;location;lat;lon;timestamp;temperature;humidity
6377;DHT22;3221;48.858;10.128;2022-10-01T07:24:32;8.10;99.90
6377;DHT22;3221;48.858;10.128;2022-10-01T07:26:59;8.10;99.90
6377;DHT22;3221;48.858;10.128;2022-10-01T07:29:32;8.10;99.90
6377;DHT22;3221;48.858;10.128;2022-10-01T07:32:00;8.10;99.90
6377;DHT22;3221;48.858;10.128;2022-10-01T07:34:28;8.10;99.90
6377;DHT22;3221;48.858;10.128;2022-10-01T07:36:56;8.20;99.90
6377;DHT22;3221;48.858;10.128;2022-10-01T07:39:23;8.20;99.90
6377;DHT22;3221;48.858;10.128;2022-10-01T07:41:50;8.00;99.90
6377;DHT22;3221;48.858;10.128;2022-10-01T07:44:18;8.10;99.90
6377;DHT22;3221;48.858;10.128;2022-10-01T07:46:45;8.10;99.90
6377;DHT22;3221;48.858;10.128;2022-10-01T07:49:13;8.10;99.90
6377;DHT22;3221;48.858;10.128;2022-10-01T07:51:40;8.20;99.90
6377;DHT22;3221;48.858;10.128;2022-10-01T07:54:09;8.20;99.90
6377;DHT22;3221;48.858;10.128;2022-10-01T07:56:36;8.10;99.90
6377;DHT22;3221;48.858;10.128;2022-10-01T07:59:03;8.20;99.90
6377;DHT22;3221;48.858;10.128;2022-10-01T08:01:30;8.20;99.90
6377;DHT22;3221;48.858;10.128;2022-10-01T08:03:58;8.20;99.90
6377;DHT22;3221;48.858;10.128;2022-10-01T08:06:25;8.30;99.90
6377;DHT22;3221;48.858;10.128;2022-10-01T08:08:52;8.30;99.90
6377;DHT22;3221;48.858;10.128;2022-10-01T08:11:18;8.40;99.90
6377;DHT22;3221;48.858;10.128;2022-10-01T08:13:46;8.40;99.90
6377;DHT22;3221;48.858;10.128;2022-10-01T08:16:13;8.30;99.90
6377;DHT22;3221;48.858;10.128;2022-10-01T08:18:40;8.40;99.90
6377;DHT22;3221;48.858;10.128;2022-10-01T08:21:07;8.40;99.90
6377;DHT22;3221;48.858;10.128;2022-10-01T08:23:34;8.40;99.90
6377;DHT22;3221;48.858;10.128;2022-10-01T08:26:05;8.30;99.90
6377;DHT22;3221;48.858;10.128;2022-10-01T08:28:34;8.30;99.90
6377;DHT22;3221;48.858;10.128;2022-10-01T08:31:05;8.40;99.90
6377;DHT22;3221;48.858;10.128;2022-10-01T08:33:33;8.30;99.90
6377;DHT22;3221;48.858;10.128;2022-10-01T08:36:04;8.40;99.90
6377;DHT22;3221;48.858;10.128;2022-10-01T08:38:35;8.40;99.90
6377;DHT22;3221;48.858;10.128;2022-10-01T08:44:02;8.30;99.90
6377;DHT22;3221;48.858;10.128;2022-10-01T08:46:31;8.40;99.90
6377;DHT22;3221;48.858;10.128;2022-10-01T08:49:22;8.40;99.90
6377;DHT22;3221;48.858;10.128;2022-10-01T08:51:52;8.40;99.90
6377;DHT22;3221;48.858;10.128;2022-10-01T08:54:40;8.40;99.90
6377;DHT22;3221;48.858;10.128;2022-10-01T08:57:14;8.50;99.90
6377;DHT22;3221;48.858;10.128;2022-10-01T08:59:58;8.50;99.90
6377;DHT22;3221;48.858;10.128;2022-10-01T09:02:40;8.60;99.90
6377;DHT22;3221;48.858;10.128;2022-10-01T09:14:30;8.40;99.90
6377;DHT22;3221;48.858;10.128;2022-10-01T09:19:54;8.40;99.90
6377;DHT22;3221;48.858;10.128;2022-10-01T09:25:23;8.50;99.90
6377;DHT22;3221;48.858;10.128;2022-10-01T09:27:51;8.50;99.90
6377;DHT22;3221;48.858;10.128;2022-10-01T09:30:20;8.50;99.90
6377;DHT22;3221;48.858;10.128;2022-10-01T09:32:54;8.50;99.90
6377;DHT22;3221;48.858;10.128;2022-10-01T09:38:37;8.60;99.90
6377;DHT22;3221;48.858;10.128;2022-10-01T09:41:09;8.60;99.90
6377;DHT22;3221;48.858;10.128;2022-10-01T09:43:38;8.60;99.90
6377;DHT22;3221;48.858;10.128;2022-10-01T09:46:07;8.60;99.90
6377;DHT22;3221;48.858;10.128;2022-10-01T09:51:13;8.60;99.90
6377;DHT22;3221;48.858;10.128;2022-10-01T09:56:32;8.70;99.90
6377;DHT22;3221;48.858;10.128;2022-10-01T09:59:04;8.60;99.90
6377;DHT22;3221;48.858;10.128;2022-10-01T10:01:39;8.60;99.90
6377;DHT22;3221;48.858;10.128;2022-10-01T10:04:08;8.70;99.90
6377;DHT22;3221;48.858;10.128;2022-10-01T10:06:35;8.70;99.90
6377;DHT22;3221;48.858;10.128;2022-10-01T10:09:03;8.70;99.90
6377;DHT22;3221;48.858;10.128;2022-10-01T10:11:31;8.60;99.90
6377;DHT22;3221;48.858;10.128;2022-10-01T10:14:00;8.80;99.90
6377;DHT22;3221;48.858;10.128;2022-10-01T10:16:34;8.80;99.90
6377;DHT22;3221;48.858;10.128;2022-10-01T10:19:14;8.70;99.90
6377;DHT22;3221;48.858;10.128;2022-10-01T10:21:56;8.80;99.90
6377;DHT22;3221;48.858;10.128;2022-10-01T10:24:34;8.70;99.90
6377;DHT22;3221;48.858;10.128;2022-10-01T10:27:16;8.90;99.90
6377;DHT22;3221;48.858;10.128;2022-10-01T10:29:45;8.80;99.90
6377;DHT22;3221;48.858;10.128;2022-10-01T10:32:24;8.90;99.90
6377;DHT22;3221;48.858;10.128;2022-10-01T10:34:55;8.80;99.90
6377;DHT22;3221;48.858;10.128;2022-10-01T10:37:31;8.80;99.90
6377;DHT22;3221;48.858;10.128;2022-10-01T10:39:59;8.90;99.90
6377;DHT22;3221;48.858;10.128;2022-10-01T10:42:27;8.80;99.90
6377;DHT22;3221;48.858;10.128;2022-10-01T10:44:56;8.90;99.90
6377;DHT22;3221;48.858;10.128;2022-10-01T10:47:26;8.90;99.90
6377;DHT22;3221;48.858;10.128;2022-10-01T10:50:00;8.90;99.90
6377;DHT22;3221;48.858;10.128;2022-10-01T10:52:33;8.90;99.90
6377;DHT22;3221;48.858;10.128;2022-10-01T10:57:44;8.80;99.90
6377;DHT22;3221;48.858;10.128;2022-10-01T11:00:15;8.80;99.90
6377;DHT22;3221;48.858;10.128;2022-10-01T11:03:12;8.80;99.90
6377;DHT22;3221;48.858;10.128;2022-10-01T11:05:41;8.80;99.90
6377;DHT22;3221;48.858;10.128;2022-10-01T11:08:17;8.80;99.90
6377;DHT22;3221;48.858;10.128;2022-10-01T11:13:53;8.90;99.90
6377;DHT22;3221;48.858;10.128;2022-10-01T11:19:43;9.00;99.90
6377;DHT22;3221;48.858;10.128;2022-10-01T11:30:54;9.00;99.90
6377;DHT22;3221;48.858;10.128;2022-10-01T11:38:45;9.00;99.90
6377;DHT22;3221;48.858;10.128;2022-10-01T11:41:29;9.00;99.90
6377;DHT22;3221;48.858;10.128;2022-10-01T11:49:30;9.20;99.90
6377;DHT22;3221;48.858;10.128;2022-10-01T11:54:37;9.20;99.90
6377;DHT22;3221;48.858;10.128;2022-10-01T11:57:12;9.20;99.90
6377;DHT22;3221;48.858;10.128;2022-10-01T12:00:06;9.20;99.90
6377;DHT22;3221;48.858;10.128;2022-10-01T12:02:53;9.30;99.90
6377;DHT22;3221;48.858;10.128;2022-10-01T12:05:44;9.30;99.90
6377;DHT22;3221;48.858;10.128;2022-10-01T12:08:22;9.30;99.90
6377;DHT22;3221;48.858;10.128;2022-10-01T12:11:09;9.40;99.90
6377;DHT22;3221;48.858;10.128;2022-10-01T12:13:46;9.40;99.90
6377;DHT22;3221;48.858;10.128;2022-10-01T12:22:19;9.40;99.90
6377;DHT22;3221;48.858;10.128;2022-10-01T12:24:50;9.40;99.90
6377;DHT22;3221;48.858;10.128;2022-10-01T12:30:48;9.40;99.90
6377;DHT22;3221;48.858;10.128;2022-10-01T12:53:42;9.50;99.90
6377;DHT22;3221;48.858;10.128;2022-10-01T12:56:52;9.50;99.90
6377;DHT22;3221;48.858;10.128;2022-10-01T12:59:35;9.50;99.90
6377;DHT22;3221;48.858;10.128;2022-10-01T13:10:30;9.60;99.90
6377;DHT22;3221;48.858;10.128;2022-10-01T13:13:46;9.70;99.90
6377;DHT22;3221;48.858;10.128;2022-10-01T13:18:55;9.70;99.90
6377;DHT22;3221;48.858;10.128;2022-10-01T13:24:22;9.60;99.90
6377;DHT22;3221;48.858;10.128;2022-10-01T13:27:01;9.70;99.90
6377;DHT22;3221;48.858;10.128;2022-10-01T13:29:44;9.70;99.90
6377;DHT22;3221;48.858;10.128;2022-10-01T13:32:30;9.70;99.90
6377;DHT22;3221;48.858;10.128;2022-10-01T13:35:40;9.70;99.90
6377;DHT22;3221;48.858;10.128;2022-10-01T13:38:23;9.90;99.90
6377;DHT22;3221;48.858;10.128;2022-10-01T13:41:02;9.90;99.90
6377;DHT22;3221;48.858;10.128;2022-10-01T13:43:31;10.00;99.90
6377;DHT22;3221;48.858;10.128;2022-10-01T13:46:08;10.00;99.90
6377;DHT22;3221;48.858;10.128;2022-10-01T13:48:42;10.00;99.90
6377;DHT22;3221;48.858;10.128;2022-10-01T13:51:12;10.10;99.90
6377;DHT22;3221;48.858;10.128;2022-10-01T13:56:11;10.10;99.90
6377;DHT22;3221;48.858;10.128;2022-10-01T13:58:43;10.10;99.90
6377;DHT22;3221;48.858;10.128;2022-10-01T14:09:13;10.20;99.90
6377;DHT22;3221;48.858;10.128;2022-10-01T14:11:44;10.30;99.90
6377;DHT22;3221;48.858;10.128;2022-10-01T14:14:42;10.30;99.90
6377;DHT22;3221;48.858;10.128;2022-10-01T14:17:33;10.40;99.90
6377;DHT22;3221;48.858;10.128;2022-10-01T14:20:02;10.50;99.90
6377;DHT22;3221;48.858;10.128;2022-10-01T14:28:31;10.50;99.90
6377;DHT22;3221;48.858;10.128;2022-10-01T14:31:07;10.60;99.90
6377;DHT22;3221;48.858;10.128;2022-10-01T14:33:58;10.60;99.90
6377;DHT22;3221;48.858;10.128;2022-10-01T14:36:32;10.60;99.90
6377;DHT22;3221;48.858;10.128;2022-10-01T14:39:14;10.60;99.90
6377;DHT22;3221;48.858;10.128;2022-10-01T14:41:42;10.60;99.90
6377;DHT22;3221;48.858;10.128;2022-10-01T14:44:29;10.70;99.90
6377;DHT22;3221;48.858;10.128;2022-10-01T14:46:58;10.70;99.90
6377;DHT22;3221;48.858;10.128;2022-10-01T14:49:28;10.70;99.90
6377;DHT22;3221;48.858;10.128;2022-10-01T14:52:28;10.70;99.90
6377;DHT22;3221;48.858;10.128;2022-10-01T14:55:00;10.70;99.90
6377;DHT22;3221;48.858;10.128;2022-10-01T14:57:35;10.70;99.90
6377;DHT22;3221;48.858;10.128;2022-10-01T15:00:26;10.70;99.90
6377;DHT22;3221;48.858;10.128;2022-10-01T15:03:12;10.70;99.90
6377;DHT22;3221;48.858;10.128;2022-10-01T15:05:42;10.70;99.90
6377;DHT22;3221;48.858;10.128;2022-10-01T15:08:15;10.70;99.90
6377;DHT22;3221;48.858;10.128;2022-10-01T15:10:58;10.70;99.90
6377;DHT22;3221;48.858;10.128;2022-10-01T15:13:30;10.70;99.90
6377;DHT22;3221;48.858;10.128;2022-10-01T15:15:58;10.80;99.90
6377;DHT22;3221;48.858;10.128;2022-10-01T15:18:25;10.70;99.90
6377;DHT22;3221;48.858;10.128;2022-10-01T15:20:59;10.60;99.90
6377;DHT22;3221;48.858;10.128;2022-10-01T15:23:26;10.50;99.90
6377;DHT22;3221;48.858;10.128;2022-10-01T15:25:56;10.60;99.90
6377;DHT22;3221;48.858;10.128;2022-10-01T15:28:32;10.70;99.90
6377;DHT22;3221;48.858;10.128;2022-10-01T15:31:00;10.70;99.90
6377;DHT22;3221;48.858;10.128;2022-10-01T15:33:37;10.80;99.90
6377;DHT22;3221;48.858;10.128;2022-10-01T15:36:16;10.70;99.90
6377;DHT22;3221;48.858;10.128;2022-10-01T15:38:45;10.70;99.90
6377;DHT22;3221;48.858;10.128;2022-10-01T15:41:24;10.70;99.90
6377;DHT22;3221;48.858;10.128;2022-10-01T15:44:03;10.80;99.90
6377;DHT22;3221;48.858;10.128;2022-10-01T15:46:32;10.80;99.90
6377;DHT22;3221;48.858;10.128;2022-10-01T15:51:55;10.70;99.90
6377;DHT22;3221;48.858;10.128;2022-10-01T15:54:42;10.70;99.90
6377;DHT22;3221;48.858;10.128;2022-10-01T15:57:20;10.80;99.90
6377;DHT22;3221;48.858;10.128;2022-10-01T15:59:51;10.70;99.90
6377;DHT22;3221;48.858;10.128;2022-10-01T16:02:23;10.70;99.90
6377;DHT22;3221;48.858;10.128;2022-10-01T16:04:51;10.70;99.90
6377;DHT22;3221;48.858;10.128;2022-10-01T16:07:27;10.80;99.90
6377;DHT22;3221;48.858;10.128;2022-10-01T16:09:57;10.60;99.90
6377;DHT22;3221;48.858;10.128;2022-10-01T16:12:28;10.70;99.90
6377;DHT22;3221;48.858;10.128;2022-10-01T16:15:00;10.70;99.90
6377;DHT22;3221;48.858;10.128;2022-10-01T16:17:30;10.70;99.90
6377;DHT22;3221;48.858;10.128;2022-10-01T16:20:00;10.90;99.90
6377;DHT22;3221;48.858;10.128;2022-10-01T16:22:31;10.70;99.90
6377;DHT22;3221;48.858;10.128;2022-10-01T16:25:02;10.90;99.90
6377;DHT22;3221;48.858;10.128;2022-10-01T16:27:47;10.80;99.90
6377;DHT22;3221;48.858;10.128;2022-10-01T16:30:26;10.80;99.90
6377;DHT22;3221;48.858;10.128;2022-10-01T16:32:54;10.70;99.90
6377;DHT22;3221;48.858;10.128;2022-10-01T16:35:27;10.70;99.90
6377;DHT22;3221;48.858;10.128;2022-10-01T16:37:56;10.80;99.90
6377;DHT22;3221;48.858;10.128;2022-10-01T16:40:26;10.70;99.90
6377;DHT22;3221;48.858;10.128;2022-10-01T16:42:53;10.80;99.90
6377;DHT22;3221;48.858;10.128;2022-10-01T16:45:23;10.80;99.90
6377;DHT22;3221;48.858;10.128;2022-10-01T16:47:51;10.80;99.90
6377;DHT22;3221;48.858;10.128;2022-10-01T16:50:20;10.70;99.90
6377;DHT22;3221;48.858;10.128;2022-10-01T16:52:51;10.80;99.90
6377;DHT22;3221;48.858;10.128;2022-10-01T16:55:24;10.70;99.90
6377;DHT22;3221;48.858;10.128;2022-10-01T16:57:52;10.70;99.90
6377;DHT22;3221;48.858;10.128;2022-10-01T17:00:24;10.70;99.90
6377;DHT22;3221;48.858;10.128;2022-10-01T17:02:52;10.70;99.90
6377;DHT22;3221;48.858;10.128;2022-10-01T17:05:25;10.70;99.90
6377;DHT22;3221;48.858;10.128;2022-10-01T17:07:53;10.70;99.90
6377;DHT22;3221;48.858;10.128;2022-10-01T17:10:21;10.70;99.90
6377;DHT22;3221;48.858;10.128;2022-10-01T17:12:48;10.70;99.90
6377;DHT22;3221;48.858;10.128;2022-10-01T17:15:22;10.80;99.90
6377;DHT22;3221;48.858;10.128;2022-10-01T17:17:56;10.70;99.90
6377;DHT22;3221;48.858;10.128;2022-10-01T17:20:25;10.70;99.90
6377;DHT22;3221;48.858;10.128;2022-10-01T17:22:54;10.70;99.90
6377;DHT22;3221;48.858;10.128;2022-10-01T17:25:23;10.70;99.90
6377;DHT22;3221;48.858;10.128;2022-10-01T17:27:51;10.70;99.90
6377;DHT22;3221;48.858;10.128;2022-10-01T17:30:17;10.80;99.90
6377;DHT22;3221;48.858;10.128;2022-10-01T17:32:44;10.70;99.90
6377;DHT22;3221;48.858;10.128;2022-10-01T17:35:13;10.80;99.90
6377;DHT22;3221;48.858;10.128;2022-10-01T17:37:41;10.70;99.90
6377;DHT22;3221;48.858;10.128;2022-10-01T17:40:09;10.80;99.90
6377;DHT22;3221;48.858;10.128;2022-10-01T17:42:36;10.80;99.90
6377;DHT22;3221;48.858;10.128;2022-10-01T17:45:06;10.70;99.90
6377;DHT22;3221;48.858;10.128;2022-10-01T17:47:33;10.70;99.90
6377;DHT22;3221;48.858;10.128;2022-10-01T17:50:01;10.60;99.90
6377;DHT22;3221;48.858;10.128;2022-10-01T17:52:29;10.60;99.90
6377;DHT22;3221;48.858;10.128;2022-10-01T17:54:57;10.70;99.90
6377;DHT22;3221;48.858;10.128;2022-10-01T17:57:24;10.80;99.90
6377;DHT22;3221;48.858;10.128;2022-10-01T17:59:51;10.70;99.90
6377;DHT22;3221;48.858;10.128;2022-10-01T18:02:18;10.80;99.90
6377;DHT22;3221;48.858;10.128;2022-10-01T18:05:05;10.80;99.90
6377;DHT22;3221;48.858;10.128;2022-10-01T18:07:35;10.70;99.90
6377;DHT22;3221;48.858;10.128;2022-10-01T18:10:06;10.70;99.90
6377;DHT22;3221;48.858;10.128;2022-10-01T18:12:33;10.70;99.90
6377;DHT22;3221;48.858;10.128;2022-10-01T18:15:00;10.60;99.90
6377;DHT22;3221;48.858;10.128;2022-10-01T18:17:27;10.70;99.90
6377;DHT22;3221;48.858;10.128;2022-10-01T18:19:54;10.70;99.90
6377;DHT22;3221;48.858;10.128;2022-10-01T18:22:23;10.70;99.90
6377;DHT22;3221;48.858;10.128;2022-10-01T18:24:49;10.70;99.90
6377;DHT22;3221;48.858;10.128;2022-10-01T18:27:16;10.70;99.90
6377;DHT22;3221;48.858;10.128;2022-10-01T18:29:43;10.80;99.90
6377;DHT22;3221;48.858;10.128;2022-10-01T18:37:33;10.70;99.90
6377;DHT22;3221;48.858;10.128;2022-10-01T18:40:18;10.70;99.90
6377;DHT22;3221;48.858;10.128;2022-10-01T18:51:13;10.60;99.90
6377;DHT22;3221;48.858;10.128;2022-10-01T18:56:34;10.70;99.90
6377;DHT22;3221;48.858;10.128;2022-10-01T19:05:31;10.70;99.90
6377;DHT22;3221;48.858;10.128;2022-10-01T19:08:33;10.70;99.90
6377;DHT22;3221;48.858;10.128;2022-10-01T19:11:27;10.80;99.90
6377;DHT22;3221;48.858;10.128;2022-10-01T19:16:59;10.80;99.90
6377;DHT22;3221;48.858;10.128;2022-10-01T19:19:44;10.70;99.90
6377;DHT22;3221;48.858;10.128;2022-10-01T19:22:33;10.90;99.90
6377;DHT22;3221;48.858;10.128;2022-10-01T19:25:32;10.70;99.90
6377;DHT22;3221;48.858;10.128;2022-10-01T19:28:06;10.70;99.90
6377;DHT22;3221;48.858;10.128;2022-10-01T19:33:12;10.70;99.90
6377;DHT22;3221;48.858;10.128;2022-10-01T19:35:44;10.70;99.90
6377;DHT22;3221;48.858;10.128;2022-10-01T19:38:42;10.70;99.90
6377;DHT22;3221;48.858;10.128;2022-10-01T19:41:38;10.70;99.90
6377;DHT22;3221;48.858;10.128;2022-10-01T19:44:14;10.70;99.90
6377;DHT22;3221;48.858;10.128;2022-10-01T19:46:44;10.70;99.90
6377;DHT22;3221;48.858;10.128;2022-10-01T19:49:20;10.70;99.90
6377;DHT22;3221;48.858;10.128;2022-10-01T19:52:00;10.70;99.90
6377;DHT22;3221;48.858;10.128;2022-10-01T19:54:33;10.70;99.90
6377;DHT22;3221;48.858;10.128;2022-10-01T19:59:42;10.70;99.90
6377;DHT22;3221;48.858;10.128;2022-10-01T20:02:32;10.60;99.90
6377;DHT22;3221;48.858;10.128;2022-10-01T20:05:10;10.60;99.90
6377;DHT22;3221;48.858;10.128;2022-10-01T20:08:02;10.50;99.90
6377;DHT22;3221;48.858;10.128;2022-10-01T20:10:44;10.70;99.90
6377;DHT22;3221;48.858;10.128;2022-10-01T22:19:09;10.80;99.90
6377;DHT22;3221;48.858;10.128;2022-10-01T22:21:41;10.70;99.90
6377;DHT22;3221;48.858;10.128;2022-10-01T22:24:18;10.80;99.90
6377;DHT22;3221;48.858;10.128;2022-10-01T22:29:37;10.90;99.90
6377;DHT22;3221;48.858;10.128;2022-10-01T22:32:10;10.90;99.90
6377;DHT22;3221;48.858;10.128;2022-10-01T22:34:53;10.90;99.90
6377;DHT22;3221;48.858;10.128;2022-10-01T22:37:27;10.80;99.90
6377;DHT22;3221;48.858;10.128;2022-10-01T22:40:12;10.80;99.90
6377;DHT22;3221;48.858;10.128;2022-10-01T22:42:46;10.80;99.90
6377;DHT22;3221;48.858;10.128;2022-10-01T22:45:28;10.80;99.90
6377;DHT22;3221;48.858;10.128;2022-10-01T22:48:13;10.80;99.90
6377;DHT22;3221;48.858;10.128;2022-10-01T22:50:51;10.80;99.90
6377;DHT22;3221;48.858;10.128;2022-10-01T22:56:09;10.80;99.90
6377;DHT22;3221;48.858;10.128;2022-10-01T22:58:49;10.90;99.90
6377;DHT22;3221;48.858;10.128;2022-10-01T23:01:56;10.90;99.90
6377;DHT22;3221;48.858;10.128;2022-10-01T23:07:07;10.70;99.90
6377;DHT22;3221;48.858;10.128;2022-10-01T23:09:56;10.70;99.90
6377;DHT22;3221;48.858;10.128;2022-10-01T23:12:45;10.70;99.90
6377;DHT22;3221;48.858;10.128;2022-10-01T23:15:21;10.90;99.90
6377;DHT22;3221;48.858;10.128;2022-10-01T23:20:32;10.90;99.90
6377;DHT22;3221;48.858;10.128;2022-10-01T23:23:11;11.10;99.90
6377;DHT22;3221;48.858;10.128;2022-10-01T23:25:55;11.00;99.90
6377;DHT22;3221;48.858;10.128;2022-10-01T23:31:56;11.00;99.90
6377;DHT22;3221;48.858;10.128;2022-10-01T23:37:14;10.90;99.90
6377;DHT22;3221;48.858;10.128;2022-10-01T23:45:12;11.00;99.90
6377;DHT22;3221;48.858;10.128;2022-10-01T23:48:00;11.00;99.90
6377;DHT22;3221;48.858;10.128;2022-10-01T23:53:41;10.90;99.90
6377;DHT22;3221;48.858;10.128;2022-10-01T23:56:14;10.80;99.90
6377;DHT22;3221;48.858;10.128;2022-10-01T23:59:22;10.90;99.90
